Home > Products > Valid Products > MTR

000
SAUS45 KGGW 300649
MTRJDN
METAR KJDN 300648Z AUTO 26009KT 07/01 A2994 RMK AO1 SLP145 T00670006
401720011





000
SAUS45 KGGW 300549
MTRJDN
METAR KJDN 300548Z AUTO 27008KT 06/01 A2994 RMK AO1 SLP148 T00610006
10167 20044 55002





000
SAUS45 KGGW 300549
MTRJDN
METAR KJDN 300548Z AUTO 27008KT 06/01 A2994 RMK AO1 SLP148 T00610006
10167 20044 55002





000
SAUS45 KGGW 300449
MTRJDN
METAR KJDN 300448Z AUTO 00000KT 06/01 A2993 RMK AO1 SLP146 T00610006





000
SAUS45 KGGW 300349
MTRJDN
METAR KJDN 300348Z AUTO 29006KT 06/01 A2994 RMK AO1 SLP151 T00610006





000
SAUS45 KGGW 300249
MTRJDN
METAR KJDN 300248Z AUTO 29005KT 07/01 A2995 RMK AO1 SLP156 T00670011
56006





000
SAUS45 KGGW 300249
MTRJDN
METAR KJDN 300248Z AUTO 29005KT 07/01 A2995 RMK AO1 SLP156 T00670011
56006





000
SAUS45 KGGW 300149
MTRJDN
METAR KJDN 300148Z AUTO 28003KT 09/00 A2995 RMK AO1 SLP160 T00940000





000
SAUS45 KGGW 300149
MTRJDN
METAR KJDN 300148Z AUTO 28003KT 09/00 A2995 RMK AO1 SLP160 T00940000





000
SAUS45 KGGW 300050
MTRJDN
METAR KJDN 300048Z AUTO 27012KT 14/M02 A2996 RMK AO1 SLP158
T01441017





000
SAUS45 KGGW 300050
MTRJDN
METAR KJDN 300048Z AUTO 27012KT 14/M02 A2996 RMK AO1 SLP158
T01441017





000
SAUS45 KGGW 292349
MTRJDN
METAR KJDN 292348Z AUTO 26012KT 17/M02 A2997 RMK AO1 SLP157
T01671017 10172 20139 56018





000
SAUS45 KGGW 292349
MTRJDN
METAR KJDN 292348Z AUTO 26012KT 17/M02 A2997 RMK AO1 SLP157
T01671017 10172 20139 56018





000
SAUS45 KGGW 292249
MTRJDN
METAR KJDN 292248Z AUTO 27013KT 16/M02 A2999 RMK AO1 SLP164
T01561017





000
SAUS45 KGGW 292249
MTRJDN
METAR KJDN 292248Z AUTO 27013KT 16/M02 A2999 RMK AO1 SLP164
T01561017





000
SAUS45 KGGW 292149
MTRJDN
METAR KJDN 292148Z AUTO 26020G24KT 16/M01 A3001 RMK AO1 SLP169
T01611011





000
SAUS45 KGGW 292149
MTRJDN
METAR KJDN 292148Z AUTO 26020G24KT 16/M01 A3001 RMK AO1 SLP169
T01611011





000
SAUS45 KGGW 292049
MTRJDN
METAR KJDN 292048Z AUTO 27019G22KT 17/M01 A3002 RMK AO1 SLP175
T01671006 58022





000
SAUS45 KGGW 292049
MTRJDN
METAR KJDN 292048Z AUTO 27019G22KT 17/M01 A3002 RMK AO1 SLP175
T01671006 58022





000
SAUS45 KGGW 291949
MTRJDN
METAR KJDN 291948Z AUTO 28012G21KT 16/00 A3005 RMK AO1 SLP183
T01560000





000
SAUS45 KGGW 291949
MTRJDN
METAR KJDN 291948Z AUTO 28012G21KT 16/00 A3005 RMK AO1 SLP183
T01560000





000
SAUS45 KGGW 291849
MTRJDN
METAR KJDN 291848Z AUTO 28011KT 14/M02 A3008 RMK AO1 SLP196
T01441017





000
SAUS45 KGGW 291849
MTRJDN
METAR KJDN 291848Z AUTO 28011KT 14/M02 A3008 RMK AO1 SLP196
T01441017





000
SAUS45 KGGW 291749
MTRJDN
METAR KJDN 291748Z AUTO 29016KT 14/01 A3009 RMK AO1 SLP199 T01390006
10139 20011 58013





000
SAUS45 KGGW 291749
MTRJDN
METAR KJDN 291748Z AUTO 29016KT 14/01 A3009 RMK AO1 SLP199 T01390006
10139 20011 58013





000
SAUS45 KGGW 291649
MTRJDN
METAR KJDN 291648Z AUTO 28015KT 12/02 A3012 RMK AO1 SLP207 T01220022





000
SAUS45 KGGW 291649
MTRJDN
METAR KJDN 291648Z AUTO 28015KT 12/02 A3012 RMK AO1 SLP207 T01220022





000
SAUS45 KGGW 291549
MTRJDN
METAR KJDN 291548Z AUTO 28015KT 10/02 A3013 RMK AO1 SLP219 T01000022





000
SAUS45 KGGW 291449
MTRJDN
METAR KJDN 291448Z AUTO 27007KT 07/03 A3013 RMK AO1 SLP219 T00670028
56001





000
SAUS45 KGGW 291349
MTRJDN
METAR KJDN 291348Z AUTO 26007KT 03/02 A3013 RMK AO1 SLP220 T00280017





000
SAUS45 KGGW 291349
MTRJDN
METAR KJDN 291348Z AUTO 26007KT 03/02 A3013 RMK AO1 SLP220 T00280017





000
SAUS45 KGGW 291249
MTRJDN
METAR KJDN 291248Z AUTO 26008KT 02/01 A3013 RMK AO1 SLP218 T00170006





000
SAUS45 KGGW 291249
MTRJDN
METAR KJDN 291248Z AUTO 26008KT 02/01 A3013 RMK AO1 SLP218 T00170006





000
SAUS45 KGGW 291149
MTRJDN
METAR KJDN 291148Z AUTO 28006KT 02/01 A3014 RMK AO1 SLP220 70017
T00170011 10072 20017 53011





000
SAUS45 KGGW 291149
MTRJDN
METAR KJDN 291148Z AUTO 28006KT 02/01 A3014 RMK AO1 SLP220 70017
T00170011 10072 20017 53011





000
SAUS45 KGGW 291049
MTRJDN
METAR KJDN 291048Z AUTO 28005KT 02/01 A3012 RMK AO1 SLP213 T00220011





000
SAUS45 KGGW 290949
MTRJDN
METAR KJDN 290948Z AUTO 22007KT 03/02 A3012 RMK AO1 SLP213 T00330022





000
SAUS45 KGGW 290849
MTRJDN
METAR KJDN 290848Z AUTO 30007KT 04/02 A3010 RMK AO1 SLP202 T00390022
53035





000
SAUS45 KGGW 290749
MTRJDN
METAR KJDN 290748Z AUTO 32017G23KT 06/03 A3006 RMK AO1 SLP182
T00610028





000
SAUS45 KGGW 290649
MTRJDN
METAR KJDN 290648Z AUTO 31025G32KT 07/04 A3002 RMK AO1 PK WND
31032/0640 SLP167 T00670039 402561006





000
SAUS45 KGGW 290549
MTRJDN
METAR KJDN 290548Z AUTO 30024G33KT 07/04 A2999 RMK AO1 PK WND
31042/0512 PRESRR SLP155 60017 T00670039 10139 20050 53054





000
SAUS45 KGGW 290549
MTRJDN
METAR KJDN 290548Z AUTO 30024G33KT 07/04 A2999 RMK AO1 PK WND
31042/0512 PRESRR SLP155 60017 T00670039 10139 20050 53054





000
SAUS45 KGGW 290449
MTRJDN
METAR KJDN 290448Z AUTO 31031G36KT 07/05 A2992 RMK AO1 PK WND
31039/0434 SLP131 P0011 T00720050





000
SAUS45 KGGW 290349
MTRJDN
METAR KJDN 290348Z AUTO 30026G32KT 06/03 A2987 RMK AO1 PK WND
29041/0313 PRESRR SLP119 P0006 T00560033





000
SAUS45 KGGW 290249
MTRJDN
METAR KJDN 290248Z AUTO 28023G36KT 07/03 A2982 RMK AO1 PK WND
29039/0232 SLP106 T00720033 53028





000
SAUS45 KGGW 290249
MTRJDN
METAR KJDN 290248Z AUTO 28023G36KT 07/03 A2982 RMK AO1 PK WND
29039/0232 SLP106 T00720033 53028





000
SAUS45 KGGW 290149
MTRJDN
METAR KJDN 290148Z AUTO 28026G37KT 11/M02 A2979 RMK AO1 PK WND
28045/0126 SLP100 T01061017





000
SAUS45 KGGW 290149
MTRJDN
METAR KJDN 290148Z AUTO 28026G37KT 11/M02 A2979 RMK AO1 PK WND
28045/0126 SLP100 T01061017





000
SAUS45 KGGW 290049
MTRJDN
METAR KJDN 290048Z AUTO 29025G33KT 13/M02 A2975 RMK AO1 PK WND
28035/0027 SLP089 T01281022





000
SAUS45 KGGW 290049
MTRJDN
METAR KJDN 290048Z AUTO 29025G33KT 13/M02 A2975 RMK AO1 PK WND
28035/0027 SLP089 T01281022





000
SAUS45 KGGW 282349
MTRJDN
METAR KJDN 282348Z AUTO 30013G29KT 13/02 A2973 RMK AO1 PK WND
30037/2329 SLP081 T01280017 10256 20100 51031





000
SAUS45 KGGW 282349
MTRJDN
METAR KJDN 282348Z AUTO 30013G29KT 13/02 A2973 RMK AO1 PK WND
30037/2329 SLP081 T01280017 10256 20100 51031





000
SAUS45 KGGW 282249
MTRJDN
METAR KJDN 282248Z AUTO 31020G25KT 13/06 A2970 RMK AO1 PK WND
28036/2159 SLP070 T01330061





000
SAUS45 KGGW 282249
MTRJDN
METAR KJDN 282248Z AUTO 31020G25KT 13/06 A2970 RMK AO1 PK WND
28036/2159 SLP070 T01330061





000
SAUS45 KGGW 282149
MTRJDN
METAR KJDN 282148Z AUTO 29029G35KT 12/06 A2970 RMK AO1 PK WND
29041/2129 PRESRR SLP071 T01220056





000
SAUS45 KGGW 282149
MTRJDN
METAR KJDN 282148Z AUTO 29029G35KT 12/06 A2970 RMK AO1 PK WND
29041/2129 PRESRR SLP071 T01220056





000
SAUS45 KGGW 282049
MTRJDN
METAR KJDN 282048Z AUTO 28025G34KT 17/07 A2963 RMK AO1 PK WND
26048/1955 SLP041 T01720067 53020





000
SAUS45 KGGW 282049
MTRJDN
METAR KJDN 282048Z AUTO 28025G34KT 17/07 A2963 RMK AO1 PK WND
26048/1955 SLP041 T01720067 53020





000
SAUS45 KGGW 281949
MTRJDN
METAR KJDN 281948Z AUTO 24031G40KT 23/00 A2955 RMK AO1 PK WND
24040/1946 PRESRR SLP006 T02280000





000
SAUS45 KGGW 281949
MTRJDN
METAR KJDN 281948Z AUTO 24031G40KT 23/00 A2955 RMK AO1 PK WND
24040/1946 PRESRR SLP006 T02280000





000
SAUS45 KGGW 281849
MTRJDN
METAR KJDN 281848Z AUTO 24021G32KT 23/01 A2954 RMK AO1 PK WND
22032/1839 SLP002 T02330011





000
SAUS45 KGGW 281849
MTRJDN
METAR KJDN 281848Z AUTO 24021G32KT 23/01 A2954 RMK AO1 PK WND
22032/1839 SLP002 T02330011





000
SAUS45 KGGW 281749
MTRJDN
METAR KJDN 281748Z AUTO 24018G26KT 23/01 A2957 RMK AO1 PK WND
23029/1707 SLP009 T02280011 10239 21006 56034





000
SAUS45 KGGW 281749
MTRJDN
METAR KJDN 281748Z AUTO 24018G26KT 23/01 A2957 RMK AO1 PK WND
23029/1707 SLP009 T02280011 10239 21006 56034





000
SAUS45 KGGW 281649
MTRJDN
METAR KJDN 281648Z AUTO 23025G32KT 22/01 A2959 RMK AO1 PK WND
23032/1640 SLP019 T02170011





000
SAUS45 KGGW 281549
MTRJDN
METAR KJDN 281548Z AUTO VRB05KT 19/02 A2964 RMK AO1 SLP038 T01940022





000
SAUS45 KGGW 281450
MTRJDN
METAR KJDN 281448Z AUTO 00000KT 12/03 A2967 RMK AO1 SLP054 T01170028
58023





000
SAUS45 KGGW 281450
MTRJDN
METAR KJDN 281448Z AUTO 00000KT 12/03 A2967 RMK AO1 SLP054 T01170028
58023





000
SAUS45 KGGW 281349
MTRJDN
METAR KJDN 281348Z AUTO 00000KT 03/01 A2971 RMK AO1 SLP068 T00330011





000
SAUS45 KGGW 281249
MTRJDN
METAR KJDN 281248Z AUTO 00000KT 00/M02 A2973 RMK AO1 SLP074
T00001017





000
SAUS45 KGGW 281249
MTRJDN
METAR KJDN 281248Z AUTO 00000KT 00/M02 A2973 RMK AO1 SLP074
T00001017





000
SAUS45 KGGW 281149
MTRJDN
METAR KJDN 281148Z AUTO 00000KT 00/M01 A2974 RMK AO1 SLP080
T00001011 10056 20000 56021





000
SAUS45 KGGW 281149
MTRJDN
METAR KJDN 281148Z AUTO 00000KT 00/M01 A2974 RMK AO1 SLP080
T00001011 10056 20000 56021





000
SAUS45 KGGW 281049
MTRJDN
METAR KJDN 281048Z AUTO 22003KT 01/M01 A2976 RMK AO1 SLP085
T00061006





000
SAUS45 KGGW 281049
MTRJDN
METAR KJDN 281048Z AUTO 22003KT 01/M01 A2976 RMK AO1 SLP085
T00061006





000
SAUS45 KGGW 280949
MTRJDN
METAR KJDN 280948Z AUTO 28004KT 01/M01 A2978 RMK AO1 SLP091
T00061006





000
SAUS45 KGGW 280849
MTRJDN
METAR KJDN 280848Z AUTO 28003KT 01/00 A2981 RMK AO1 SLP103 T00110000
57020





000
SAUS45 KGGW 280749
MTRJDN
METAR KJDN 280748Z AUTO 00000KT 02/00 A2983 RMK AO1 SLP109 T00170000





000
SAUS45 KGGW 280649
MTRJDN
METAR KJDN 280648Z AUTO 29003KT 03/01 A2986 RMK AO1 SLP117 T00330011
402110028





000
SAUS45 KGGW 280549
MTRJDN
METAR KJDN 280548Z AUTO 30005KT 06/02 A2988 RMK AO1 SLP124 T00560017
10211 20039 58002





000
SAUS45 KGGW 280549
MTRJDN
METAR KJDN 280548Z AUTO 30005KT 06/02 A2988 RMK AO1 SLP124 T00560017
10211 20039 58002





000
SAUS45 KGGW 280449
MTRJDN
METAR KJDN 280448Z AUTO 25004KT 04/02 A2988 RMK AO1 SLP127 T00440017





000
SAUS45 KGGW 280449
MTRJDN
METAR KJDN 280448Z AUTO 25004KT 04/02 A2988 RMK AO1 SLP127 T00440017





000
SAUS45 KGGW 280349
MTRJDN
METAR KJDN 280348Z AUTO 29003KT 06/02 A2989 RMK AO1 SLP130 T00610022





000
SAUS45 KGGW 280349
MTRJDN
METAR KJDN 280348Z AUTO 29003KT 06/02 A2989 RMK AO1 SLP130 T00610022





000
SAUS45 KGGW 280249
MTRJDN
METAR KJDN 280248Z AUTO 00000KT 09/02 A2989 RMK AO1 SLP126 T00940022
55001





000
SAUS45 KGGW 280249
MTRJDN
METAR KJDN 280248Z AUTO 00000KT 09/02 A2989 RMK AO1 SLP126 T00940022
55001





000
SAUS45 KGGW 280149
MTRJDN
METAR KJDN 280148Z AUTO 05006KT 14/02 A2987 RMK AO1 SLP122 T01440022





000
SAUS45 KGGW 280049
MTRJDN
METAR KJDN 280048Z AUTO 04004KT 20/02 A2988 RMK AO1 SLP121 T02000017





000
SAUS45 KGGW 272349
MTRJDN
METAR KJDN 272348Z AUTO 31005KT 20/02 A2989 RMK AO1 SLP123 T02000017
10211 20167 56010





000
SAUS45 KGGW 272249
MTRJDN
METAR KJDN 272248Z AUTO 30011KT 20/02 A2990 RMK AO1 SLP126 T02000017





000
SAUS45 KGGW 272149
MTRJDN
METAR KJDN 272148Z AUTO 32013KT 20/03 A2992 RMK AO1 SLP132 T02000028





000
SAUS45 KGGW 272149
MTRJDN
METAR KJDN 272148Z AUTO 32013KT 20/03 A2992 RMK AO1 SLP132 T02000028





000
SAUS45 KGGW 272049
MTRJDN
METAR KJDN 272048Z AUTO VRB06KT 20/03 A2992 RMK AO1 SLP135 T02000028
58016





000
SAUS45 KGGW 271952
MTRJDN
METAR KJDN
NO CARRIER

RING

CONNECT 1200

BOIMTRSNT ALL
TTAA00 KSNT 271951
METAR KSNT 271951Z AUTO 32003KT 16/00 A3026 RMK AO1 SLP196 T01610000





000
SAUS45 KGGW 271952
MTRJDN
METAR KJDN
NO CARRIER

RING

CONNECT 1200

BOIMTRSNT ALL
TTAA00 KSNT 271951
METAR KSNT 271951Z AUTO 32003KT 16/00 A3026 RMK AO1 SLP196 T01610000





000
SAUS45 KGGW 271849
MTRJDN
METAR KJDN 271848Z AUTO 30012G17KT 18/03 A2997 RMK AO1 SLP154
T01830033





000
SAUS45 KGGW 271849
MTRJDN
METAR KJDN 271848Z AUTO 30012G17KT 18/03 A2997 RMK AO1 SLP154
T01830033





000
SAUS45 KGGW 271749
MTRJDN
METAR KJDN 271748Z AUTO 31014KT 17/03 A2998 RMK AO1 SLP154 T01670033
10172 20044 58005





000
SAUS45 KGGW 271749
MTRJDN
METAR KJDN 271748Z AUTO 31014KT 17/03 A2998 RMK AO1 SLP154 T01670033
10172 20044 58005





000
SAUS45 KGGW 271649
MTRJDN
METAR KJDN 271648Z AUTO 29010KT 270V330 16/04 A2998 RMK AO1 SLP157
T01610039





000
SAUS45 KGGW 271649
MTRJDN
METAR KJDN 271648Z AUTO 29010KT 270V330 16/04 A2998 RMK AO1 SLP157
T01610039





000
SAUS45 KGGW 271549
MTRJDN
METAR KJDN 271548Z AUTO 30015KT 15/04 A2999 RMK AO1 SLP159 T01500039





000
SAUS45 KGGW 271449
MTRJDN
METAR KJDN 271448Z AUTO 27008KT 12/04 A2999 RMK AO1 SLP161 T01220044
50003





000
SAUS45 KGGW 271349
MTRJDN
METAR KJDN 271348Z AUTO 27009KT 07/03 A2999 RMK AO1 SLP165 T00720033





000
SAUS45 KGGW 271349
MTRJDN
METAR KJDN 271348Z AUTO 27009KT 07/03 A2999 RMK AO1 SLP165 T00720033





000
SAUS45 KGGW 271249
MTRJDN
METAR KJDN 271248Z AUTO 28007KT 06/03 A2999 RMK AO1 SLP164 T00560028





000
SAUS45 KGGW 271149
MTRJDN
METAR KJDN 271148Z AUTO 27007KT 06/03 A2998 RMK AO1 SLP160 T00610028
10072 20039 58004





000
SAUS45 KGGW 271149
MTRJDN
METAR KJDN 271148Z AUTO 27007KT 06/03 A2998 RMK AO1 SLP160 T00610028
10072 20039 58004





000
SAUS45 KGGW 271049
MTRJDN
METAR KJDN 271048Z AUTO 28005KT 05/02 A2999 RMK AO1 SLP163 T00500022





000
SAUS45 KGGW 271049
MTRJDN
METAR KJDN 271048Z AUTO 28005KT 05/02 A2999 RMK AO1 SLP163 T00500022





000
SAUS45 KGGW 270949
MTRJDN
METAR KJDN 270948Z AUTO 28005KT 05/02 A2999 RMK AO1 SLP163 T00500022





000
SAUS45 KGGW 270949
MTRJDN
METAR KJDN 270948Z AUTO 28005KT 05/02 A2999 RMK AO1 SLP163 T00500022





000
SAUS45 KGGW 270849
MTRJDN
METAR KJDN 270848Z AUTO 29005KT 05/02 A2999 RMK AO1 SLP166 T00500017
56008





000
SAUS45 KGGW 270849
MTRJDN
METAR KJDN 270848Z AUTO 29005KT 05/02 A2999 RMK AO1 SLP166 T00500017
56008





000
SAUS45 KGGW 270749
MTRJDN
METAR KJDN 270748Z AUTO 28008KT 06/02 A2999 RMK AO1 SLP167 T00560017





000
SAUS45 KGGW 270749
MTRJDN
METAR KJDN 270748Z AUTO 28008KT 06/02 A2999 RMK AO1 SLP167 T00560017





    US Dept of Commerce
    National Oceanic and Atmospheric Administration
    National Weather Service
    1325 East West Highway
    Silver Spring, MD 20910
    Page Author: NWS Internet Services Team
Disclaimer
Information Quality
Credits
Glossary
Privacy Policy
Freedom of Information Act (FOIA)
About Us
Career Opportunities